M.y.constance — ZCMA3 — position and weather

sailwx.info

Track history (hours):
 
Tides and Currents Weather Stations Pressure Air Temp Water Temp Dewpoint Dewpoint Depression Visibility Wind Speed Wind Dir Waves Ship Positions

M.y.constance

Last reported at 2018-Mar-03 23:37 UTC. Time now 2018-Apr-19 23:29 UTC.
Position N 09°12' W 079°54'.
Warning: this ship's position is 46 days out of date.

Length 46 m; draft 3.2 m.

Type: Pleasure craft. MMSI: 319554000.

Date/timePositionNaut miles runAvg speedWind from/ knotsBaromVisibWave heightAir tempDewpointWater temp
2018-Mar-03 23:37N 09°12' W 079°54'111.4
2018-Mar-03 23:29N 09°13' W 079°55'4 7.4
2018-Mar-03 23:00N 09°16' W 079°55'0 0.5
2018-Mar-03 22:29N 09°16' W 079°55'0 0.4
2018-Mar-03 21:59N 09°17' W 079°55'1 2.8
2018-Mar-03 21:30N 09°18' W 079°55'3 5.6
2018-Mar-03 21:00N 09°21' W 079°55'0 0.2
2018-Mar-03 20:29N 09°21' W 079°55'0 0.0
2018-Mar-03 19:59N 09°21' W 079°55'0 0.0
2018-Mar-03 19:28N 09°21' W 079°55'0 0.0
2018-Mar-03 18:58N 09°21' W 079°55'0 0.1
2018-Mar-03 18:31N 09°21' W 079°55'3 5.0
2018-Mar-03 18:00N 09°22' W 079°57'0 0.8
2018-Mar-03 17:28N 09°22' W 079°57'0 0.0
2018-Mar-03 16:37N 09°22' W 079°57'0 0.0
2018-Mar-03 16:25N 09°22' W 079°57'0 0.0
2018-Mar-03 15:58N 09°22' W 079°57'0 0.0
2018-Mar-03 15:28N 09°22' W 079°57'0 0.0
2018-Mar-03 14:58N 09°22' W 079°57'0 0.0
2018-Mar-03 14:28N 09°22' W 079°57'0 0.0
2018-Mar-03 13:58N 09°22' W 079°57'0 0.0
2018-Mar-03 13:28N 09°22' W 079°57'0 0.0
2018-Mar-03 12:58N 09°22' W 079°57'0 0.0
2018-Mar-03 12:25N 09°22' W 079°57'0 0.0
2018-Mar-03 11:58N 09°22' W 079°57'0 0.0
2018-Mar-03 11:28N 09°22' W 079°57'0 0.0
2018-Mar-03 10:58N 09°22' W 079°57'0 0.0
2018-Mar-03 10:28N 09°22' W 079°57'0 0.0
2018-Mar-03 09:58N 09°22' W 079°57'0 0.0
2018-Mar-03 09:25N 09°22' W 079°57'0 0.0
2018-Mar-03 08:58N 09°22' W 079°57'0 0.0
2018-Mar-03 08:28N 09°22' W 079°57'0 0.0
2018-Mar-03 07:55N 09°22' W 079°57'0 0.0
2018-Mar-03 07:28N 09°22' W 079°57'0 0.0
2018-Mar-03 06:55N 09°22' W 079°57'0 0.0
2018-Mar-03 06:28N 09°22' W 079°57'0 0.0
2018-Mar-03 05:55N 09°22' W 079°57'0 0.0
2018-Mar-03 05:25N 09°22' W 079°57'0 0.0
2018-Mar-03 04:55N 09°22' W 079°57'0 0.0
2018-Mar-03 04:28N 09°22' W 079°57'0 0.0
2018-Mar-03 03:58N 09°22' W 079°57'0 0.0
2018-Mar-03 03:25N 09°22' W 079°57'0 0.0
2018-Mar-03 02:58N 09°22' W 079°57'0 0.0
2018-Mar-03 02:25N 09°22' W 079°57'0 0.0
2018-Mar-03 01:58N 09°22' W 079°57'0 0.0
2018-Mar-03 01:28N 09°22' W 079°57'0 0.0
2018-Mar-03 00:58N 09°22' W 079°57'0 0.0
2018-Mar-03 00:28N 09°22' W 079°57'0 0.0
2018-Mar-02 23:58N 09°22' W 079°57'0 0.0
2018-Mar-02 23:25N 09°22' W 079°57'0 0.0
2018-Mar-02 22:58N 09°22' W 079°57'0 0.0
2018-Mar-02 22:30N 09°22' W 079°57'0 0.0
2018-Mar-02 22:01N 09°22' W 079°57'0 0.0
2018-Mar-02 21:28N 09°22' W 079°57'0 0.0
2018-Mar-02 20:58N 09°22' W 079°57'0 0.0
2018-Mar-02 20:28N 09°22' W 079°57'0 0.0
2018-Mar-02 19:57N 09°22' W 079°57'0 0.0
2018-Mar-02 19:28N 09°22' W 079°57'0 0.0
2018-Mar-02 19:01N 09°22' W 079°57'0 0.0
2018-Mar-02 18:28N 09°22' W 079°57'0 0.0
2018-Mar-02 18:01N 09°22' W 079°57'0 0.0
2018-Mar-02 17:28N 09°22' W 079°57'0 0.0
2018-Mar-02 17:01N 09°22' W 079°57'0 0.0
2018-Mar-02 16:30N 09°22' W 079°57'0 0.0
2018-Mar-02 15:58N 09°22' W 079°57'0 0.0
2018-Mar-02 15:30N 09°22' W 079°57'0 0.0
2018-Mar-02 14:55N 09°22' W 079°57'0 0.0
2018-Mar-02 14:30N 09°22' W 079°57'0 0.0
2018-Mar-02 14:00N 09°22' W 079°57'0 0.0
2018-Mar-02 13:28N 09°22' W 079°57'0 0.0
2018-Mar-02 12:55N 09°22' W 079°57'0 0.0
2018-Mar-02 12:28N 09°22' W 079°57'0 0.0
2018-Mar-02 11:58N 09°22' W 079°57'0 0.0
2018-Mar-02 11:31N 09°22' W 079°57'0 0.0
2018-Mar-02 11:01N 09°22' W 079°57'0 0.0
2018-Mar-02 10:30N 09°22' W 079°57'0 0.0
2018-Mar-02 10:01N 09°22' W 079°57'0 0.0
2018-Mar-02 09:31N 09°22' W 079°57'0 0.0
2018-Mar-02 08:55N 09°22' W 079°57'0 0.0
2018-Mar-02 08:31N 09°22' W 079°57'0 0.0
2018-Mar-02 08:00N 09°22' W 079°57'0 0.0
2018-Mar-02 07:28N 09°22' W 079°57'0 0.0
2018-Mar-02 07:01N 09°22' W 079°57'0 0.0
2018-Mar-02 06:30N 09°22' W 079°57'0 0.0
2018-Mar-02 06:00N 09°22' W 079°57'0 0.0
2018-Mar-02 05:31N 09°22' W 079°57'0 0.0
2018-Mar-02 05:00N 09°22' W 079°57'0 0.0
2018-Mar-02 04:30N 09°22' W 079°57'0 0.0
2018-Mar-02 04:00N 09°22' W 079°57'0 0.0
2018-Mar-02 03:30N 09°22' W 079°57'0 0.0
2018-Mar-02 03:00N 09°22' W 079°57'0 0.0
2018-Mar-02 02:30N 09°22' W 079°57'0 0.0
2018-Mar-02 02:01N 09°22' W 079°57'0 0.0
2018-Mar-02 01:25N 09°22' W 079°57'0 0.0
2018-Mar-02 01:00N 09°22' W 079°57'0 0.0
2018-Mar-02 00:30N 09°22' W 079°57'0 0.0
2018-Mar-02 00:00N 09°22' W 079°57'0 0.0
2018-Mar-01 23:30N 09°22' W 079°57'0 0.0
2018-Mar-01 22:57N 09°22' W 079°57'0 0.0
2018-Mar-01 22:30N 09°22' W 079°57'0 0.0
2018-Mar-01 22:00N 09°22' W 079°57'0 0.0
2018-Mar-01 21:30N 09°22' W 079°57'0 0.0
2018-Mar-01 21:00N 09°22' W 079°57'0 0.0
2018-Mar-01 20:30N 09°22' W 079°57'0 0.0
2018-Mar-01 19:54N 09°22' W 079°57'0 0.0
2018-Mar-01 19:30N 09°22' W 079°57'0 0.0
2018-Mar-01 19:00N 09°22' W 079°57'0 0.0
2018-Mar-01 18:30N 09°22' W 079°57'0 0.0
2018-Mar-01 18:00N 09°22' W 079°57'0 0.0
2018-Mar-01 17:30N 09°22' W 079°57'0 0.0
2018-Mar-01 17:00N 09°22' W 079°57'0 0.0
2018-Mar-01 16:30N 09°22' W 079°57'0 0.0
2018-Mar-01 15:59N 09°22' W 079°57'0 0.0
2018-Mar-01 15:29N 09°22' W 079°57'0 0.0
2018-Mar-01 14:59N 09°22' W 079°57'0 0.0
2018-Mar-01 14:29N 09°22' W 079°57'0 0.0
2018-Mar-01 13:59N 09°22' W 079°57'0 0.0
2018-Mar-01 13:29N 09°22' W 079°57'0 0.0
2018-Mar-01 12:59N 09°22' W 079°57'0 0.0
2018-Mar-01 12:29N 09°22' W 079°57'0 0.0
2018-Mar-01 11:59N 09°22' W 079°57'0 0.0
2018-Mar-01 11:29N 09°22' W 079°57'0 0.0
2018-Mar-01 10:59N 09°22' W 079°57'0 0.0
2018-Mar-01 10:29N 09°22' W 079°57'0 0.0
2018-Mar-01 09:59N 09°22' W 079°57'0 0.0
2018-Mar-01 09:26N 09°22' W 079°57'0 0.0
2018-Mar-01 08:59N 09°22' W 079°57'0 0.0
2018-Mar-01 08:29N 09°22' W 079°57'0 0.0
2018-Mar-01 07:59N 09°22' W 079°57'0 0.0
2018-Mar-01 07:29N 09°22' W 079°57'0 0.0
2018-Mar-01 06:59N 09°22' W 079°57'0 0.0
2018-Mar-01 06:29N 09°22' W 079°57'0 0.0
2018-Mar-01 05:59N 09°22' W 079°57'0 0.0
2018-Mar-01 05:29N 09°22' W 079°57'0 0.0
2018-Mar-01 04:59N 09°22' W 079°57'0 0.0
2018-Mar-01 04:29N 09°22' W 079°57'0 0.0
2018-Mar-01 03:59N 09°22' W 079°57'0 0.0
2018-Mar-01 03:29N 09°22' W 079°57'0 0.0
2018-Mar-01 02:56N 09°22' W 079°57'0 0.0
2018-Mar-01 02:29N 09°22' W 079°57'0 0.0
2018-Mar-01 01:59N 09°22' W 079°57'0 0.0
2018-Mar-01 01:29N 09°22' W 079°57'0 0.0
2018-Mar-01 00:59N 09°22' W 079°57'0 0.0
2018-Mar-01 00:29N 09°22' W 079°57'0 0.0
2018-Feb-28 23:59N 09°22' W 079°57'0 0.0
2018-Feb-28 23:29N 09°22' W 079°57'0 0.0
2018-Feb-28 22:59N 09°22' W 079°57'0 0.0
2018-Feb-28 22:29N 09°22' W 079°57'0 0.0
2018-Feb-28 21:59N 09°22' W 079°57'0 0.0
2018-Feb-28 21:29N 09°22' W 079°57'0 0.0
2018-Feb-28 20:59N 09°22' W 079°57'0 0.0
2018-Feb-28 20:29N 09°22' W 079°57'0 0.0
2018-Feb-28 19:59N 09°22' W 079°57'0 0.0
2018-Feb-28 19:29N 09°22' W 079°57'0 0.0
2018-Feb-28 18:59N 09°22' W 079°57'0 0.0
2018-Feb-28 18:29N 09°22' W 079°57'0 0.0
2018-Feb-28 17:59N 09°22' W 079°57'0 0.0
2018-Feb-28 17:26N 09°22' W 079°57'0 0.0
2018-Feb-28 16:59N 09°22' W 079°57'0 0.0
2018-Feb-28 16:29N 09°22' W 079°57'0 0.0
2018-Feb-28 15:59N 09°22' W 079°57'0 0.0
2018-Feb-28 15:29N 09°22' W 079°57'0 0.0
2018-Feb-28 14:59N 09°22' W 079°57'0 0.0
2018-Feb-28 14:29N 09°22' W 079°57'0 0.0
2018-Feb-28 13:58N 09°22' W 079°57'0 0.0
2018-Feb-28 13:28N 09°22' W 079°57'0 0.0
2018-Feb-28 12:58N 09°22' W 079°57'0 0.0
2018-Feb-28 12:28N 09°22' W 079°57'0 0.0
2018-Feb-28 11:58N 09°22' W 079°57'0 0.0
2018-Feb-28 11:28N 09°22' W 079°57'0 0.0
2018-Feb-28 10:58N 09°22' W 079°57'0 0.0
2018-Feb-28 10:28N 09°22' W 079°57'0 0.0
2018-Feb-28 09:58N 09°22' W 079°57'0 0.0
2018-Feb-28 09:28N 09°22' W 079°57'0 0.0
2018-Feb-28 08:49N 09°22' W 079°57'0 0.0
2018-Feb-28 08:28N 09°22' W 079°57'0 0.0
2018-Feb-28 07:58N 09°22' W 079°57'0 0.0
2018-Feb-28 07:25N 09°22' W 079°57'0 0.0
2018-Feb-28 06:58N 09°22' W 079°57'0 0.0
2018-Feb-28 06:28N 09°22' W 079°57'0 0.0
2018-Feb-28 05:58N 09°22' W 079°57'0 0.0
2018-Feb-28 05:28N 09°22' W 079°57'0 0.0
2018-Feb-28 04:58N 09°22' W 079°57'0 0.0
2018-Feb-28 04:28N 09°22' W 079°57'0 0.0
2018-Feb-28 03:58N 09°22' W 079°57'0 0.0
2018-Feb-28 03:28N 09°22' W 079°57'0 0.0
2018-Feb-28 02:58N 09°22' W 079°57'0 0.0
2018-Feb-28 02:28N 09°22' W 079°57'0 0.0
2018-Feb-28 01:58N 09°22' W 079°57'0 0.0
2018-Feb-28 01:22N 09°22' W 079°57'0 0.0
2018-Feb-28 00:58N 09°22' W 079°57'0 0.0
2018-Feb-28 00:28N 09°22' W 079°57'0 0.0
2018-Feb-27 23:58N 09°22' W 079°57'0 0.0
2018-Feb-27 23:28N 09°22' W 079°57'0 0.0
2018-Feb-27 22:58N 09°22' W 079°57'0 0.0
2018-Feb-27 22:28N 09°22' W 079°57'0 0.0
2018-Feb-27 21:58N 09°22' W 079°57'0 0.0
2018-Feb-27 21:28N 09°22' W 079°57'0 0.0
2018-Feb-27 20:58N 09°22' W 079°57'0 0.0
2018-Feb-27 20:28N 09°22' W 079°57'0 0.0
2018-Feb-27 19:58N 09°22' W 079°57'0 0.0
2018-Feb-27 19:28N 09°22' W 079°57'0 0.0
2018-Feb-27 18:58N 09°22' W 079°57'0 0.0
2018-Feb-27 18:28N 09°22' W 079°57'0 0.0
2018-Feb-27 17:58N 09°22' W 079°57'0 0.0
2018-Feb-27 17:28N 09°22' W 079°57'0 0.0
2018-Feb-27 16:58N 09°22' W 079°57'0 0.0
2018-Feb-27 16:28N 09°22' W 079°57'0 0.0
2018-Feb-27 15:58N 09°22' W 079°57'0 0.0
2018-Feb-27 15:28N 09°22' W 079°57'0 0.0
2018-Feb-27 14:58N 09°22' W 079°57'0 0.0
2018-Feb-27 14:28N 09°22' W 079°57'0 0.0
2018-Feb-27 13:58N 09°22' W 079°57'0 0.0
2018-Feb-27 13:28N 09°22' W 079°57'0 0.0
2018-Feb-27 12:58N 09°22' W 079°57'0 0.0
2018-Feb-27 12:28N 09°22' W 079°57'0 0.0
2018-Feb-27 11:58N 09°22' W 079°57'0 0.0
2018-Feb-27 11:28N 09°22' W 079°57'0 0.0
2018-Feb-27 10:58N 09°22' W 079°57'0 0.0
2018-Feb-27 10:28N 09°22' W 079°57'0 0.0
2018-Feb-27 09:04N 09°22' W 079°57'0 0.1
2018-Feb-27 08:58N 09°22' W 079°57'0 0.0
2018-Feb-27 08:28N 09°22' W 079°57'0 0.0
2018-Feb-27 07:58N 09°22' W 079°57'0 0.0
2018-Feb-27 07:28N 09°22' W 079°57'0 0.0
2018-Feb-27 06:58N 09°22' W 079°57'0 0.0
2018-Feb-27 06:28N 09°22' W 079°57'0 0.0
2018-Feb-27 05:58N 09°22' W 079°57'0 0.0
2018-Feb-27 05:25N 09°22' W 079°57'0 0.0
2018-Feb-27 04:55N 09°22' W 079°57'0 0.0
2018-Feb-27 04:28N 09°22' W 079°57'0 0.0
2018-Feb-27 03:58N 09°22' W 079°57'0 0.0
2018-Feb-27 03:28N 09°22' W 079°57'0 0.0
2018-Feb-27 02:58N 09°22' W 079°57'0 0.0
2018-Feb-27 02:28N 09°22' W 079°57'0 0.0
2018-Feb-27 01:55N 09°22' W 079°57'0 0.0
2018-Feb-27 01:28N 09°22' W 079°57'0 0.0
2018-Feb-27 00:55N 09°22' W 079°57'0 0.0
2018-Feb-27 00:28N 09°22' W 079°57'0 0.0
2018-Feb-26 23:55N 09°22' W 079°57'0 0.0
2018-Feb-26 23:28N 09°22' W 079°57'0 0.0
2018-Feb-26 22:58N 09°22' W 079°57'0 0.0
2018-Feb-26 22:28N 09°22' W 079°57'0 0.0
2018-Feb-26 21:58N 09°22' W 079°57'0 0.0
2018-Feb-26 21:25N 09°22' W 079°57'0 0.0
2018-Feb-26 20:58N 09°22' W 079°57'0 0.0
2018-Feb-26 20:28N 09°22' W 079°57'0 0.0
2018-Feb-26 19:55N 09°22' W 079°57'0 0.0
2018-Feb-26 19:28N 09°22' W 079°57'0 0.0
2018-Feb-26 18:58N 09°22' W 079°57'0 0.0
2018-Feb-26 18:28N 09°22' W 079°57'0 0.0
2018-Feb-26 17:58N 09°22' W 079°57'0 0.0
2018-Feb-26 17:28N 09°22' W 079°57'0 0.0
2018-Feb-26 16:58N 09°22' W 079°57'0 0.0
2018-Feb-26 16:22N 09°22' W 079°57'0 0.0
2018-Feb-26 15:58N 09°22' W 079°57'0 0.0
2018-Feb-26 15:28N 09°22' W 079°57'0 0.0
2018-Feb-26 14:58N 09°22' W 079°57'0 0.0
2018-Feb-26 14:28N 09°22' W 079°57'0 0.0
2018-Feb-26 13:58N 09°22' W 079°57'0 0.0
2018-Feb-26 13:28N 09°22' W 079°57'0 0.0
2018-Feb-26 12:58N 09°22' W 079°57'0 0.0
2018-Feb-26 12:28N 09°22' W 079°57'0 0.0
2018-Feb-26 11:58N 09°22' W 079°57'0 0.0
2018-Feb-26 11:28N 09°22' W 079°57'0 0.0
2018-Feb-26 10:55N 09°22' W 079°57'0 0.0
2018-Feb-26 10:28N 09°22' W 079°57'0 0.0
2018-Feb-26 09:58N 09°22' W 079°57'0 0.0
2018-Feb-26 09:28N 09°22' W 079°57'0 0.0
2018-Feb-26 08:58N 09°22' W 079°57'0 0.0
2018-Feb-26 08:28N 09°22' W 079°57'0 0.0
2018-Feb-26 07:58N 09°22' W 079°57'0 0.0
2018-Feb-26 07:28N 09°22' W 079°57'0 0.0
2018-Feb-26 06:58N 09°22' W 079°57'0 0.0
2018-Feb-26 06:28N 09°22' W 079°57'0 0.0
2018-Feb-26 05:55N 09°22' W 079°57'0 0.0
2018-Feb-26 05:28N 09°22' W 079°57'0 0.0
2018-Feb-26 04:58N 09°22' W 079°57'0 0.0
2018-Feb-26 04:28N 09°22' W 079°57'0 0.0
2018-Feb-26 03:58N 09°22' W 079°57'0 0.0
2018-Feb-26 03:28N 09°22' W 079°57'0 0.0
2018-Feb-26 02:58N 09°22' W 079°57'0 0.0
2018-Feb-26 02:28N 09°22' W 079°57'0 0.0
2018-Feb-26 01:58N 09°22' W 079°57'0 0.0
2018-Feb-26 01:28N 09°22' W 079°57'0 0.0
2018-Feb-26 00:58N 09°22' W 079°57'0 0.0
2018-Feb-26 00:28N 09°22' W 079°57'0 0.0
2018-Feb-25 23:58N 09°22' W 079°57'0 0.0
2018-Feb-25 23:28N 09°22' W 079°57'0 0.0
2018-Feb-25 22:52N 09°22' W 079°57'0 0.0
2018-Feb-25 22:28N 09°22' W 079°57'0 0.0
2018-Feb-25 21:58N 09°22' W 079°57'0 0.0
2018-Feb-25 21:28N 09°22' W 079°57'0 0.0
2018-Feb-25 20:58N 09°22' W 079°57'0 0.0
2018-Feb-25 20:25N 09°22' W 079°57'0 0.0
2018-Feb-25 19:58N 09°22' W 079°57'0 0.0
2018-Feb-25 19:28N 09°22' W 079°57'0 0.0
2018-Feb-25 18:58N 09°22' W 079°57'0 0.0
2018-Feb-25 18:28N 09°22' W 079°57'0 0.0
2018-Feb-25 17:58N 09°22' W 079°57'0 0.0
2018-Feb-25 17:28N 09°22' W 079°57'0 0.0
2018-Feb-25 16:58N 09°22' W 079°57'0 0.0
2018-Feb-25 16:28N 09°22' W 079°57'0 0.0
2018-Feb-25 15:58N 09°22' W 079°57'0 0.0
2018-Feb-25 15:28N 09°22' W 079°57'0 0.0
2018-Feb-25 14:58N 09°22' W 079°57'0 0.0
2018-Feb-25 14:28N 09°22' W 079°57'0 0.0
2018-Feb-25 13:58N 09°22' W 079°57'0 0.0
2018-Feb-25 13:28N 09°22' W 079°57'0 0.0
2018-Feb-25 12:52N 09°22' W 079°57'0 0.0
2018-Feb-25 12:28N 09°22' W 079°57'0 0.0
2018-Feb-25 11:55N 09°22' W 079°57'0 0.0
2018-Feb-25 11:25N 09°22' W 079°57'0 0.0
2018-Feb-25 10:58N 09°22' W 079°57'0 0.0
2018-Feb-25 10:28N 09°22' W 079°57'0 0.0
2018-Feb-25 09:58N 09°22' W 079°57'0 0.0
2018-Feb-25 09:28N 09°22' W 079°57'0 0.0
2018-Feb-25 08:52N 09°22' W 079°57'0 0.0
2018-Feb-25 08:28N 09°22' W 079°57'0 0.0
2018-Feb-25 07:58N 09°22' W 079°57'0 0.0
2018-Feb-25 07:25N 09°22' W 079°57'0 0.0
2018-Feb-25 06:55N 09°22' W 079°57'0 0.0
2018-Feb-25 06:28N 09°22' W 079°57'0 0.0
2018-Feb-25 05:58N 09°22' W 079°57'0 0.0
2018-Feb-25 05:28N 09°22' W 079°57'0 0.0
2018-Feb-25 04:58N 09°22' W 079°57'0 0.0
2018-Feb-25 04:28N 09°22' W 079°57'0 0.0
2018-Feb-25 03:58N 09°22' W 079°57'0 0.0
2018-Feb-25 03:28N 09°22' W 079°57'0 0.0
2018-Feb-25 02:58N 09°22' W 079°57'0 0.0
2018-Feb-25 02:28N 09°22' W 079°57'0 0.0
2018-Feb-25 01:58N 09°22' W 079°57'0 0.0
2018-Feb-25 01:25N 09°22' W 079°57'0 0.0
2018-Feb-25 00:58N 09°22' W 079°57'0 0.0
2018-Feb-25 00:28N 09°22' W 079°57'0 0.0
2018-Feb-24 23:58N 09°22' W 079°57'0 0.0
2018-Feb-24 23:28N 09°22' W 079°57'0 0.0
2018-Feb-24 22:55N 09°22' W 079°57'0 0.0
2018-Feb-24 22:28N 09°22' W 079°57'0 0.0
2018-Feb-24 21:58N 09°22' W 079°57'0 0.0
2018-Feb-24 21:25N 09°22' W 079°57'0 0.0
2018-Feb-24 20:58N 09°22' W 079°57'0 0.0
2018-Feb-24 20:28N 09°22' W 079°57'0 0.0
2018-Feb-24 19:58N 09°22' W 079°57'0 0.0
2018-Feb-24 19:28N 09°22' W 079°57'0 0.0
2018-Feb-24 18:58N 09°22' W 079°57'0 0.0
2018-Feb-24 18:28N 09°22' W 079°57'0 0.0
2018-Feb-24 17:58N 09°22' W 079°57'0 0.0
2018-Feb-24 17:28N 09°22' W 079°57'0 0.0
2018-Feb-24 16:58N 09°22' W 079°57'0 0.0
2018-Feb-24 16:28N 09°22' W 079°57'0 0.0
2018-Feb-24 15:55N 09°22' W 079°57'0 0.0
2018-Feb-24 15:28N 09°22' W 079°57'0 0.0
2018-Feb-24 14:58N 09°22' W 079°57'0 0.0
2018-Feb-24 14:25N 09°22' W 079°57'0 0.0
2018-Feb-24 13:58N 09°22' W 079°57'0 0.1
2018-Feb-24 13:28N 09°22' W 079°57'0 0.1
2018-Feb-24 12:58N 09°22' W 079°57'0 0.0
2018-Feb-24 12:28N 09°22' W 079°57'0 0.0
2018-Feb-24 11:55N 09°22' W 079°57'0 0.0
2018-Feb-24 11:28N 09°22' W 079°57'0 0.0
2018-Feb-24 10:58N 09°22' W 079°57'0 0.0
2018-Feb-24 10:28N 09°22' W 079°57'0 0.0
2018-Feb-24 09:58N 09°22' W 079°57'0 0.0
2018-Feb-24 09:28N 09°22' W 079°57'0 0.0
2018-Feb-24 08:58N 09°22' W 079°57'0 0.0
2018-Feb-24 08:28N 09°22' W 079°57'0 0.0
2018-Feb-24 07:58N 09°22' W 079°57'0 0.0
2018-Feb-24 07:28N 09°22' W 079°57'0 0.0
2018-Feb-24 06:58N 09°22' W 079°57'0 0.0
2018-Feb-24 06:28N 09°22' W 079°57'0 0.0
2018-Feb-24 05:58N 09°22' W 079°57'0 0.0
2018-Feb-24 05:28N 09°22' W 079°57'0 0.0
2018-Feb-24 04:58N 09°22' W 079°57'0 0.0
2018-Feb-24 04:28N 09°22' W 079°57'0 0.0
2018-Feb-24 03:58N 09°22' W 079°57'0 0.0
2018-Feb-24 03:28N 09°22' W 079°57'0 0.0
2018-Feb-24 02:58N 09°22' W 079°57'0 0.0
2018-Feb-24 02:28N 09°22' W 079°57'0 0.0
2018-Feb-24 01:58N 09°22' W 079°57'0 0.0
2018-Feb-24 01:28N 09°22' W 079°57'0 0.0
2018-Feb-24 00:58N 09°22' W 079°57'0 0.0
2018-Feb-24 00:25N 09°22' W 079°57'0 0.0
2018-Feb-23 23:58N 09°22' W 079°57'0 0.0
2018-Feb-23 23:28N 09°22' W 079°57'0 0.0
2018-Feb-23 22:58N 09°22' W 079°57'0 0.0
2018-Feb-23 22:28N 09°22' W 079°57'0 0.0
2018-Feb-23 21:58N 09°22' W 079°57'0 0.0
2018-Feb-23 21:28N 09°22' W 079°57'0 0.0
2018-Feb-23 20:58N 09°22' W 079°57'0 0.0
2018-Feb-23 20:28N 09°22' W 079°57'0 0.0
2018-Feb-23 19:58N 09°22' W 079°57'0 0.0
2018-Feb-23 19:28N 09°22' W 079°57'0 0.0
2018-Feb-23 18:58N 09°22' W 079°57'0 0.0
2018-Feb-23 18:28N 09°22' W 079°57'0 0.0
2018-Feb-23 17:58N 09°22' W 079°57'0 0.0
2018-Feb-23 17:28N 09°22' W 079°57'0 0.0
2018-Feb-23 16:58N 09°22' W 079°57'0 0.0
2018-Feb-23 16:28N 09°22' W 079°57'0 0.0
2018-Feb-23 15:58N 09°22' W 079°57'0 0.0
2018-Feb-23 15:28N 09°22' W 079°57'0 0.0
2018-Feb-23 14:58N 09°22' W 079°57'0 0.0
2018-Feb-23 14:28N 09°22' W 079°57'0 0.0
2018-Feb-23 13:58N 09°22' W 079°57'0 0.0
2018-Feb-23 13:28N 09°22' W 079°57'0 0.0
2018-Feb-23 12:58N 09°22' W 079°57'0 0.0
2018-Feb-23 12:28N 09°22' W 079°57'0 0.0
2018-Feb-23 11:58N 09°22' W 079°57'0 0.0
2018-Feb-23 11:28N 09°22' W 079°57'0 0.0
2018-Feb-23 10:58N 09°22' W 079°57'0 0.0
2018-Feb-23 10:28N 09°22' W 079°57'0 0.0
2018-Feb-23 09:58N 09°22' W 079°57'0 0.0
2018-Feb-23 09:28N 09°22' W 079°57'0 0.0
2018-Feb-23 08:58N 09°22' W 079°57'0 0.0
2018-Feb-23 08:28N 09°22' W 079°57'0 0.0
2018-Feb-23 07:58N 09°22' W 079°57'0 0.0
2018-Feb-23 07:25N 09°22' W 079°57'0 0.0
2018-Feb-23 06:58N 09°22' W 079°57'0 0.0
2018-Feb-23 06:28N 09°22' W 079°57'0 0.0
2018-Feb-23 05:58N 09°22' W 079°57'0 0.0
2018-Feb-23 05:28N 09°22' W 079°57'0 0.0
2018-Feb-23 04:58N 09°22' W 079°57'0 0.0
2018-Feb-23 04:28N 09°22' W 079°57'0 0.0
2018-Feb-23 03:58N 09°22' W 079°57'0 0.0
2018-Feb-23 03:28N 09°22' W 079°57'0 0.0
2018-Feb-23 02:58N 09°22' W 079°57'0 0.0
2018-Feb-23 02:28N 09°22' W 079°57'0 0.0
2018-Feb-23 01:58N 09°22' W 079°57'0 0.0
2018-Feb-23 01:28N 09°22' W 079°57'0 0.0
2018-Feb-23 00:58N 09°22' W 079°57'0 0.0
2018-Feb-23 00:28N 09°22' W 079°57'0 0.0
2018-Feb-22 23:58N 09°22' W 079°57'0 0.0
2018-Feb-22 23:28N 09°22' W 079°57'0 0.0
2018-Feb-22 22:58N 09°22' W 079°57'0 0.0
2018-Feb-22 22:28N 09°22' W 079°57'0 0.0
2018-Feb-22 21:58N 09°22' W 079°57'0 0.0
2018-Feb-22 21:28N 09°22' W 079°57'0 0.0
2018-Feb-22 20:58N 09°22' W 079°57'0 0.0
2018-Feb-22 20:28N 09°22' W 079°57'0 0.0
2018-Feb-22 19:58N 09°22' W 079°57'0 0.0
2018-Feb-22 19:28N 09°22' W 079°57'0 0.0
2018-Feb-22 18:58N 09°22' W 079°57'0 0.0
2018-Feb-22 18:28N 09°22' W 079°57'0 0.0
2018-Feb-22 17:58N 09°22' W 079°57'0 0.0
2018-Feb-22 17:28N 09°22' W 079°57'0 0.0
2018-Feb-22 16:58N 09°22' W 079°57'0 0.0
2018-Feb-22 16:28N 09°22' W 079°57'0 0.0
2018-Feb-22 15:58N 09°22' W 079°57'0 0.0
2018-Feb-22 15:28N 09°22' W 079°57'0 0.0
2018-Feb-22 14:58N 09°22' W 079°57'0 0.0
2018-Feb-22 14:28N 09°22' W 079°57'0 0.0
2018-Feb-22 13:58N 09°22' W 079°57'0 0.0
2018-Feb-22 13:28N 09°22' W 079°57'0 0.0
2018-Feb-22 12:58N 09°22' W 079°57'0 0.0
2018-Feb-22 12:28N 09°22' W 079°57'0 0.0
2018-Feb-22 11:58N 09°22' W 079°57'0 0.0
2018-Feb-22 11:28N 09°22' W 079°57'0 0.0
2018-Feb-22 10:58N 09°22' W 079°57'0 0.0
2018-Feb-22 10:28N 09°22' W 079°57'0 0.0
2018-Feb-22 09:58N 09°22' W 079°57'0 0.0
2018-Feb-22 09:28N 09°22' W 079°57'0 0.0
2018-Feb-22 08:58N 09°22' W 079°57'0 0.0
2018-Feb-22 08:28N 09°22' W 079°57'0 0.0
2018-Feb-22 07:58N 09°22' W 079°57'0 0.0
2018-Feb-22 07:28N 09°22' W 079°57'0 0.0
2018-Feb-22 06:58N 09°22' W 079°57'0 0.0
2018-Feb-22 06:28N 09°22' W 079°57'0 0.0
2018-Feb-22 05:58N 09°22' W 079°57'0 0.0
2018-Feb-22 05:28N 09°22' W 079°57'0 0.0
2018-Feb-22 04:58N 09°22' W 079°57'0 0.0
2018-Feb-22 04:28N 09°22' W 079°57'0 0.0
2018-Feb-22 03:58N 09°22' W 079°57'0 0.0
2018-Feb-22 03:28N 09°22' W 079°57'0 0.0
2018-Feb-22 02:58N 09°22' W 079°57'0 0.0
2018-Feb-22 02:28N 09°22' W 079°57'0 0.0
2018-Feb-22 01:58N 09°22' W 079°57'0 0.0
2018-Feb-22 01:28N 09°22' W 079°57'0 0.0
2018-Feb-22 00:58N 09°22' W 079°57'0 0.0
2018-Feb-22 00:28N 09°22' W 079°57'0 0.0
2018-Feb-21 23:58N 09°22' W 079°57'  
Track history (hours):
 
Tides and Currents Weather Stations Pressure Air Temp Water Temp Dewpoint Dewpoint Depression Visibility Wind Speed Wind Dir Waves Ship Positions

M.y.constance

Last reported at 2018-Mar-03 23:37 UTC. Time now 2018-Apr-19 23:29 UTC.
Position N 09°12' W 079°54'.
Warning: this ship's position is 46 days out of date.

Length 46 m; draft 3.2 m.

Type: Pleasure craft. MMSI: 319554000.

Date/timePositionNaut miles runAvg speedWind from/ knotsBaromVisibWave heightAir tempDewpointWater temp
2018-Mar-03 23:37N 09°12' W 079°54'111.4
2018-Mar-03 23:29N 09°13' W 079°55'4 7.4
2018-Mar-03 23:00N 09°16' W 079°55'0 0.5
2018-Mar-03 22:29N 09°16' W 079°55'0 0.4
2018-Mar-03 21:59N 09°17' W 079°55'1 2.8
2018-Mar-03 21:30N 09°18' W 079°55'3 5.6
2018-Mar-03 21:00N 09°21' W 079°55'0 0.2
2018-Mar-03 20:29N 09°21' W 079°55'0 0.0
2018-Mar-03 19:59N 09°21' W 079°55'0 0.0
2018-Mar-03 19:28N 09°21' W 079°55'0 0.0
2018-Mar-03 18:58N 09°21' W 079°55'0 0.1
2018-Mar-03 18:31N 09°21' W 079°55'3 5.0
2018-Mar-03 18:00N 09°22' W 079°57'0 0.8
2018-Mar-03 17:28N 09°22' W 079°57'0 0.0
2018-Mar-03 16:37N 09°22' W 079°57'0 0.0
2018-Mar-03 16:25N 09°22' W 079°57'0 0.0
2018-Mar-03 15:58N 09°22' W 079°57'0 0.0
2018-Mar-03 15:28N 09°22' W 079°57'0 0.0
2018-Mar-03 14:58N 09°22' W 079°57'0 0.0
2018-Mar-03 14:28N 09°22' W 079°57'0 0.0
2018-Mar-03 13:58N 09°22' W 079°57'0 0.0
2018-Mar-03 13:28N 09°22' W 079°57'0 0.0
2018-Mar-03 12:58N 09°22' W 079°57'0 0.0
2018-Mar-03 12:25N 09°22' W 079°57'0 0.0
2018-Mar-03 11:58N 09°22' W 079°57'0 0.0
2018-Mar-03 11:28N 09°22' W 079°57'0 0.0
2018-Mar-03 10:58N 09°22' W 079°57'0 0.0
2018-Mar-03 10:28N 09°22' W 079°57'0 0.0
2018-Mar-03 09:58N 09°22' W 079°57'0 0.0
2018-Mar-03 09:25N 09°22' W 079°57'0 0.0
2018-Mar-03 08:58N 09°22' W 079°57'0 0.0
2018-Mar-03 08:28N 09°22' W 079°57'0 0.0
2018-Mar-03 07:55N 09°22' W 079°57'0 0.0
2018-Mar-03 07:28N 09°22' W 079°57'0 0.0
2018-Mar-03 06:55N 09°22' W 079°57'0 0.0
2018-Mar-03 06:28N 09°22' W 079°57'0 0.0
2018-Mar-03 05:55N 09°22' W 079°57'0 0.0
2018-Mar-03 05:25N 09°22' W 079°57'0 0.0
2018-Mar-03 04:55N 09°22' W 079°57'0 0.0
2018-Mar-03 04:28N 09°22' W 079°57'0 0.0
2018-Mar-03 03:58N 09°22' W 079°57'0 0.0
2018-Mar-03 03:25N 09°22' W 079°57'0 0.0
2018-Mar-03 02:58N 09°22' W 079°57'0 0.0
2018-Mar-03 02:25N 09°22' W 079°57'0 0.0
2018-Mar-03 01:58N 09°22' W 079°57'0 0.0
2018-Mar-03 01:28N 09°22' W 079°57'0 0.0
2018-Mar-03 00:58N 09°22' W 079°57'0 0.0
2018-Mar-03 00:28N 09°22' W 079°57'0 0.0
2018-Mar-02 23:58N 09°22' W 079°57'0 0.0
2018-Mar-02 23:25N 09°22' W 079°57'0 0.0
2018-Mar-02 22:58N 09°22' W 079°57'0 0.0
2018-Mar-02 22:30N 09°22' W 079°57'0 0.0
2018-Mar-02 22:01N 09°22' W 079°57'0 0.0
2018-Mar-02 21:28N 09°22' W 079°57'0 0.0
2018-Mar-02 20:58N 09°22' W 079°57'0 0.0
2018-Mar-02 20:28N 09°22' W 079°57'0 0.0
2018-Mar-02 19:57N 09°22' W 079°57'0 0.0
2018-Mar-02 19:28N 09°22' W 079°57'0 0.0
2018-Mar-02 19:01N 09°22' W 079°57'0 0.0
2018-Mar-02 18:28N 09°22' W 079°57'0 0.0
2018-Mar-02 18:01N 09°22' W 079°57'0 0.0
2018-Mar-02 17:28N 09°22' W 079°57'0 0.0
2018-Mar-02 17:01N 09°22' W 079°57'0 0.0
2018-Mar-02 16:30N 09°22' W 079°57'0 0.0
2018-Mar-02 15:58N 09°22' W 079°57'0 0.0
2018-Mar-02 15:30N 09°22' W 079°57'0 0.0
2018-Mar-02 14:55N 09°22' W 079°57'0 0.0
2018-Mar-02 14:30N 09°22' W 079°57'0 0.0
2018-Mar-02 14:00N 09°22' W 079°57'0 0.0
2018-Mar-02 13:28N 09°22' W 079°57'0 0.0
2018-Mar-02 12:55N 09°22' W 079°57'0 0.0
2018-Mar-02 12:28N 09°22' W 079°57'0 0.0
2018-Mar-02 11:58N 09°22' W 079°57'0 0.0
2018-Mar-02 11:31N 09°22' W 079°57'0 0.0
2018-Mar-02 11:01N 09°22' W 079°57'0 0.0
2018-Mar-02 10:30N 09°22' W 079°57'0 0.0
2018-Mar-02 10:01N 09°22' W 079°57'0 0.0
2018-Mar-02 09:31N 09°22' W 079°57'0 0.0
2018-Mar-02 08:55N 09°22' W 079°57'0 0.0
2018-Mar-02 08:31N 09°22' W 079°57'0 0.0
2018-Mar-02 08:00N 09°22' W 079°57'0 0.0
2018-Mar-02 07:28N 09°22' W 079°57'0 0.0
2018-Mar-02 07:01N 09°22' W 079°57'0 0.0
2018-Mar-02 06:30N 09°22' W 079°57'0 0.0
2018-Mar-02 06:00N 09°22' W 079°57'0 0.0
2018-Mar-02 05:31N 09°22' W 079°57'0 0.0
2018-Mar-02 05:00N 09°22' W 079°57'0 0.0
2018-Mar-02 04:30N 09°22' W 079°57'0 0.0
2018-Mar-02 04:00N 09°22' W 079°57'0 0.0
2018-Mar-02 03:30N 09°22' W 079°57'0 0.0
2018-Mar-02 03:00N 09°22' W 079°57'0 0.0
2018-Mar-02 02:30N 09°22' W 079°57'0 0.0
2018-Mar-02 02:01N 09°22' W 079°57'0 0.0
2018-Mar-02 01:25N 09°22' W 079°57'0 0.0
2018-Mar-02 01:00N 09°22' W 079°57'0 0.0
2018-Mar-02 00:30N 09°22' W 079°57'0 0.0
2018-Mar-02 00:00N 09°22' W 079°57'0 0.0
2018-Mar-01 23:30N 09°22' W 079°57'0 0.0
2018-Mar-01 22:57N 09°22' W 079°57'0 0.0
2018-Mar-01 22:30N 09°22' W 079°57'0 0.0
2018-Mar-01 22:00N 09°22' W 079°57'0 0.0
2018-Mar-01 21:30N 09°22' W 079°57'0 0.0
2018-Mar-01 21:00N 09°22' W 079°57'0 0.0
2018-Mar-01 20:30N 09°22' W 079°57'0 0.0
2018-Mar-01 19:54N 09°22' W 079°57'0 0.0
2018-Mar-01 19:30N 09°22' W 079°57'0 0.0
2018-Mar-01 19:00N 09°22' W 079°57'0 0.0
2018-Mar-01 18:30N 09°22' W 079°57'0 0.0
2018-Mar-01 18:00N 09°22' W 079°57'0 0.0
2018-Mar-01 17:30N 09°22' W 079°57'0 0.0
2018-Mar-01 17:00N 09°22' W 079°57'0 0.0
2018-Mar-01 16:30N 09°22' W 079°57'0 0.0
2018-Mar-01 15:59N 09°22' W 079°57'0 0.0
2018-Mar-01 15:29N 09°22' W 079°57'0 0.0
2018-Mar-01 14:59N 09°22' W 079°57'0 0.0
2018-Mar-01 14:29N 09°22' W 079°57'0 0.0
2018-Mar-01 13:59N 09°22' W 079°57'0 0.0
2018-Mar-01 13:29N 09°22' W 079°57'0 0.0
2018-Mar-01 12:59N 09°22' W 079°57'0 0.0
2018-Mar-01 12:29N 09°22' W 079°57'0 0.0
2018-Mar-01 11:59N 09°22' W 079°57'0 0.0
2018-Mar-01 11:29N 09°22' W 079°57'0 0.0
2018-Mar-01 10:59N 09°22' W 079°57'0 0.0
2018-Mar-01 10:29N 09°22' W 079°57'0 0.0
2018-Mar-01 09:59N 09°22' W 079°57'0 0.0
2018-Mar-01 09:26N 09°22' W 079°57'0 0.0
2018-Mar-01 08:59N 09°22' W 079°57'0 0.0
2018-Mar-01 08:29N 09°22' W 079°57'0 0.0
2018-Mar-01 07:59N 09°22' W 079°57'0 0.0
2018-Mar-01 07:29N 09°22' W 079°57'0 0.0
2018-Mar-01 06:59N 09°22' W 079°57'0 0.0
2018-Mar-01 06:29N 09°22' W 079°57'0 0.0
2018-Mar-01 05:59N 09°22' W 079°57'0 0.0
2018-Mar-01 05:29N 09°22' W 079°57'0 0.0
2018-Mar-01 04:59N 09°22' W 079°57'0 0.0
2018-Mar-01 04:29N 09°22' W 079°57'0 0.0
2018-Mar-01 03:59N 09°22' W 079°57'0 0.0
2018-Mar-01 03:29N 09°22' W 079°57'0 0.0
2018-Mar-01 02:56N 09°22' W 079°57'0 0.0
2018-Mar-01 02:29N 09°22' W 079°57'0 0.0
2018-Mar-01 01:59N 09°22' W 079°57'0 0.0
2018-Mar-01 01:29N 09°22' W 079°57'0 0.0
2018-Mar-01 00:59N 09°22' W 079°57'0 0.0
2018-Mar-01 00:29N 09°22' W 079°57'0 0.0
2018-Feb-28 23:59N 09°22' W 079°57'0 0.0
2018-Feb-28 23:29N 09°22' W 079°57'0 0.0
2018-Feb-28 22:59N 09°22' W 079°57'0 0.0
2018-Feb-28 22:29N 09°22' W 079°57'0 0.0
2018-Feb-28 21:59N 09°22' W 079°57'0 0.0
2018-Feb-28 21:29N 09°22' W 079°57'0 0.0
2018-Feb-28 20:59N 09°22' W 079°57'0 0.0
2018-Feb-28 20:29N 09°22' W 079°57'0 0.0
2018-Feb-28 19:59N 09°22' W 079°57'0 0.0
2018-Feb-28 19:29N 09°22' W 079°57'0 0.0
2018-Feb-28 18:59N 09°22' W 079°57'0 0.0
2018-Feb-28 18:29N 09°22' W 079°57'0 0.0
2018-Feb-28 17:59N 09°22' W 079°57'0 0.0
2018-Feb-28 17:26N 09°22' W 079°57'0 0.0
2018-Feb-28 16:59N 09°22' W 079°57'0 0.0
2018-Feb-28 16:29N 09°22' W 079°57'0 0.0
2018-Feb-28 15:59N 09°22' W 079°57'0 0.0
2018-Feb-28 15:29N 09°22' W 079°57'0 0.0
2018-Feb-28 14:59N 09°22' W 079°57'0 0.0
2018-Feb-28 14:29N 09°22' W 079°57'0 0.0
2018-Feb-28 13:58N 09°22' W 079°57'0 0.0
2018-Feb-28 13:28N 09°22' W 079°57'0 0.0
2018-Feb-28 12:58N 09°22' W 079°57'0 0.0
2018-Feb-28 12:28N 09°22' W 079°57'0 0.0
2018-Feb-28 11:58N 09°22' W 079°57'0 0.0
2018-Feb-28 11:28N 09°22' W 079°57'0 0.0
2018-Feb-28 10:58N 09°22' W 079°57'0 0.0
2018-Feb-28 10:28N 09°22' W 079°57'0 0.0
2018-Feb-28 09:58N 09°22' W 079°57'0 0.0
2018-Feb-28 09:28N 09°22' W 079°57'0 0.0
2018-Feb-28 08:49N 09°22' W 079°57'0 0.0
2018-Feb-28 08:28N 09°22' W 079°57'0 0.0
2018-Feb-28 07:58N 09°22' W 079°57'0 0.0
2018-Feb-28 07:25N 09°22' W 079°57'0 0.0
2018-Feb-28 06:58N 09°22' W 079°57'0 0.0
2018-Feb-28 06:28N 09°22' W 079°57'0 0.0
2018-Feb-28 05:58N 09°22' W 079°57'0 0.0
2018-Feb-28 05:28N 09°22' W 079°57'0 0.0
2018-Feb-28 04:58N 09°22' W 079°57'0 0.0
2018-Feb-28 04:28N 09°22' W 079°57'0 0.0
2018-Feb-28 03:58N 09°22' W 079°57'0 0.0
2018-Feb-28 03:28N 09°22' W 079°57'0 0.0
2018-Feb-28 02:58N 09°22' W 079°57'0 0.0
2018-Feb-28 02:28N 09°22' W 079°57'0 0.0
2018-Feb-28 01:58N 09°22' W 079°57'0 0.0
2018-Feb-28 01:22N 09°22' W 079°57'0 0.0
2018-Feb-28 00:58N 09°22' W 079°57'0 0.0
2018-Feb-28 00:28N 09°22' W 079°57'0 0.0
2018-Feb-27 23:58N 09°22' W 079°57'0 0.0
2018-Feb-27 23:28N 09°22' W 079°57'0 0.0
2018-Feb-27 22:58N 09°22' W 079°57'0 0.0
2018-Feb-27 22:28N 09°22' W 079°57'0 0.0
2018-Feb-27 21:58N 09°22' W 079°57'0 0.0
2018-Feb-27 21:28N 09°22' W 079°57'0 0.0
2018-Feb-27 20:58N 09°22' W 079°57'0 0.0
2018-Feb-27 20:28N 09°22' W 079°57'0 0.0
2018-Feb-27 19:58N 09°22' W 079°57'0 0.0
2018-Feb-27 19:28N 09°22' W 079°57'0 0.0
2018-Feb-27 18:58N 09°22' W 079°57'0 0.0
2018-Feb-27 18:28N 09°22' W 079°57'0 0.0
2018-Feb-27 17:58N 09°22' W 079°57'0 0.0
2018-Feb-27 17:28N 09°22' W 079°57'0 0.0
2018-Feb-27 16:58N 09°22' W 079°57'0 0.0
2018-Feb-27 16:28N 09°22' W 079°57'0 0.0
2018-Feb-27 15:58N 09°22' W 079°57'0 0.0
2018-Feb-27 15:28N 09°22' W 079°57'0 0.0
2018-Feb-27 14:58N 09°22' W 079°57'0 0.0
2018-Feb-27 14:28N 09°22' W 079°57'0 0.0
2018-Feb-27 13:58N 09°22' W 079°57'0 0.0
2018-Feb-27 13:28N 09°22' W 079°57'0 0.0
2018-Feb-27 12:58N 09°22' W 079°57'0 0.0
2018-Feb-27 12:28N 09°22' W 079°57'0 0.0
2018-Feb-27 11:58N 09°22' W 079°57'0 0.0
2018-Feb-27 11:28N 09°22' W 079°57'0 0.0
2018-Feb-27 10:58N 09°22' W 079°57'0 0.0
2018-Feb-27 10:28N 09°22' W 079°57'0 0.0
2018-Feb-27 09:04N 09°22' W 079°57'0 0.1
2018-Feb-27 08:58N 09°22' W 079°57'0 0.0
2018-Feb-27 08:28N 09°22' W 079°57'0 0.0
2018-Feb-27 07:58N 09°22' W 079°57'0 0.0
2018-Feb-27 07:28N 09°22' W 079°57'0 0.0
2018-Feb-27 06:58N 09°22' W 079°57'0 0.0
2018-Feb-27 06:28N 09°22' W 079°57'0 0.0
2018-Feb-27 05:58N 09°22' W 079°57'0 0.0
2018-Feb-27 05:25N 09°22' W 079°57'0 0.0
2018-Feb-27 04:55N 09°22' W 079°57'0 0.0
2018-Feb-27 04:28N 09°22' W 079°57'0 0.0
2018-Feb-27 03:58N 09°22' W 079°57'0 0.0
2018-Feb-27 03:28N 09°22' W 079°57'0 0.0
2018-Feb-27 02:58N 09°22' W 079°57'0 0.0
2018-Feb-27 02:28N 09°22' W 079°57'0 0.0
2018-Feb-27 01:55N 09°22' W 079°57'0 0.0
2018-Feb-27 01:28N 09°22' W 079°57'0 0.0
2018-Feb-27 00:55N 09°22' W 079°57'0 0.0
2018-Feb-27 00:28N 09°22' W 079°57'0 0.0
2018-Feb-26 23:55N 09°22' W 079°57'0 0.0
2018-Feb-26 23:28N 09°22' W 079°57'0 0.0
2018-Feb-26 22:58N 09°22' W 079°57'0 0.0
2018-Feb-26 22:28N 09°22' W 079°57'0 0.0
2018-Feb-26 21:58N 09°22' W 079°57'0 0.0
2018-Feb-26 21:25N 09°22' W 079°57'0 0.0
2018-Feb-26 20:58N 09°22' W 079°57'0 0.0
2018-Feb-26 20:28N 09°22' W 079°57'0 0.0
2018-Feb-26 19:55N 09°22' W 079°57'0 0.0
2018-Feb-26 19:28N 09°22' W 079°57'0 0.0
2018-Feb-26 18:58N 09°22' W 079°57'0 0.0
2018-Feb-26 18:28N 09°22' W 079°57'0 0.0
2018-Feb-26 17:58N 09°22' W 079°57'0 0.0
2018-Feb-26 17:28N 09°22' W 079°57'0 0.0
2018-Feb-26 16:58N 09°22' W 079°57'0 0.0
2018-Feb-26 16:22N 09°22' W 079°57'0 0.0
2018-Feb-26 15:58N 09°22' W 079°57'0 0.0
2018-Feb-26 15:28N 09°22' W 079°57'0 0.0
2018-Feb-26 14:58N 09°22' W 079°57'0 0.0
2018-Feb-26 14:28N 09°22' W 079°57'0 0.0
2018-Feb-26 13:58N 09°22' W 079°57'0 0.0
2018-Feb-26 13:28N 09°22' W 079°57'0 0.0
2018-Feb-26 12:58N 09°22' W 079°57'0 0.0
2018-Feb-26 12:28N 09°22' W 079°57'0 0.0
2018-Feb-26 11:58N 09°22' W 079°57'0 0.0
2018-Feb-26 11:28N 09°22' W 079°57'0 0.0
2018-Feb-26 10:55N 09°22' W 079°57'0 0.0
2018-Feb-26 10:28N 09°22' W 079°57'0 0.0
2018-Feb-26 09:58N 09°22' W 079°57'0 0.0
2018-Feb-26 09:28N 09°22' W 079°57'0 0.0
2018-Feb-26 08:58N 09°22' W 079°57'0 0.0
2018-Feb-26 08:28N 09°22' W 079°57'0 0.0
2018-Feb-26 07:58N 09°22' W 079°57'0 0.0
2018-Feb-26 07:28N 09°22' W 079°57'0 0.0
2018-Feb-26 06:58N 09°22' W 079°57'0 0.0
2018-Feb-26 06:28N 09°22' W 079°57'0 0.0
2018-Feb-26 05:55N 09°22' W 079°57'0 0.0
2018-Feb-26 05:28N 09°22' W 079°57'0 0.0
2018-Feb-26 04:58N 09°22' W 079°57'0 0.0
2018-Feb-26 04:28N 09°22' W 079°57'0 0.0
2018-Feb-26 03:58N 09°22' W 079°57'0 0.0
2018-Feb-26 03:28N 09°22' W 079°57'0 0.0
2018-Feb-26 02:58N 09°22' W 079°57'0 0.0
2018-Feb-26 02:28N 09°22' W 079°57'0 0.0
2018-Feb-26 01:58N 09°22' W 079°57'0 0.0
2018-Feb-26 01:28N 09°22' W 079°57'0 0.0
2018-Feb-26 00:58N 09°22' W 079°57'0 0.0
2018-Feb-26 00:28N 09°22' W 079°57'0 0.0
2018-Feb-25 23:58N 09°22' W 079°57'0 0.0
2018-Feb-25 23:28N 09°22' W 079°57'0 0.0
2018-Feb-25 22:52N 09°22' W 079°57'0 0.0
2018-Feb-25 22:28N 09°22' W 079°57'0 0.0
2018-Feb-25 21:58N 09°22' W 079°57'0 0.0
2018-Feb-25 21:28N 09°22' W 079°57'0 0.0
2018-Feb-25 20:58N 09°22' W 079°57'0 0.0
2018-Feb-25 20:25N 09°22' W 079°57'0 0.0
2018-Feb-25 19:58N 09°22' W 079°57'0 0.0
2018-Feb-25 19:28N 09°22' W 079°57'0 0.0
2018-Feb-25 18:58N 09°22' W 079°57'0 0.0
2018-Feb-25 18:28N 09°22' W 079°57'0 0.0
2018-Feb-25 17:58N 09°22' W 079°57'0 0.0
2018-Feb-25 17:28N 09°22' W 079°57'0 0.0
2018-Feb-25 16:58N 09°22' W 079°57'0 0.0
2018-Feb-25 16:28N 09°22' W 079°57'0 0.0
2018-Feb-25 15:58N 09°22' W 079°57'0 0.0
2018-Feb-25 15:28N 09°22' W 079°57'0 0.0
2018-Feb-25 14:58N 09°22' W 079°57'0 0.0
2018-Feb-25 14:28N 09°22' W 079°57'0 0.0
2018-Feb-25 13:58N 09°22' W 079°57'0 0.0
2018-Feb-25 13:28N 09°22' W 079°57'0 0.0
2018-Feb-25 12:52N 09°22' W 079°57'0 0.0
2018-Feb-25 12:28N 09°22' W 079°57'0 0.0
2018-Feb-25 11:55N 09°22' W 079°57'0 0.0
2018-Feb-25 11:25N 09°22' W 079°57'0 0.0
2018-Feb-25 10:58N 09°22' W 079°57'0 0.0
2018-Feb-25 10:28N 09°22' W 079°57'0 0.0
2018-Feb-25 09:58N 09°22' W 079°57'0 0.0
2018-Feb-25 09:28N 09°22' W 079°57'0 0.0
2018-Feb-25 08:52N 09°22' W 079°57'0 0.0
2018-Feb-25 08:28N 09°22' W 079°57'0 0.0
2018-Feb-25 07:58N 09°22' W 079°57'0 0.0
2018-Feb-25 07:25N 09°22' W 079°57'0 0.0
2018-Feb-25 06:55N 09°22' W 079°57'0 0.0
2018-Feb-25 06:28N 09°22' W 079°57'0 0.0
2018-Feb-25 05:58N 09°22' W 079°57'0 0.0
2018-Feb-25 05:28N 09°22' W 079°57'0 0.0
2018-Feb-25 04:58N 09°22' W 079°57'0 0.0
2018-Feb-25 04:28N 09°22' W 079°57'0 0.0
2018-Feb-25 03:58N 09°22' W 079°57'0 0.0
2018-Feb-25 03:28N 09°22' W 079°57'0 0.0
2018-Feb-25 02:58N 09°22' W 079°57'0 0.0
2018-Feb-25 02:28N 09°22' W 079°57'0 0.0
2018-Feb-25 01:58N 09°22' W 079°57'0 0.0
2018-Feb-25 01:25N 09°22' W 079°57'0 0.0
2018-Feb-25 00:58N 09°22' W 079°57'0 0.0
2018-Feb-25 00:28N 09°22' W 079°57'0 0.0
2018-Feb-24 23:58N 09°22' W 079°57'0 0.0
2018-Feb-24 23:28N 09°22' W 079°57'0 0.0
2018-Feb-24 22:55N 09°22' W 079°57'0 0.0
2018-Feb-24 22:28N 09°22' W 079°57'0 0.0
2018-Feb-24 21:58N 09°22' W 079°57'0 0.0
2018-Feb-24 21:25N 09°22' W 079°57'0 0.0
2018-Feb-24 20:58N 09°22' W 079°57'0 0.0
2018-Feb-24 20:28N 09°22' W 079°57'0 0.0
2018-Feb-24 19:58N 09°22' W 079°57'0 0.0
2018-Feb-24 19:28N 09°22' W 079°57'0 0.0
2018-Feb-24 18:58N 09°22' W 079°57'0 0.0
2018-Feb-24 18:28N 09°22' W 079°57'0 0.0
2018-Feb-24 17:58N 09°22' W 079°57'0 0.0
2018-Feb-24 17:28N 09°22' W 079°57'0 0.0
2018-Feb-24 16:58N 09°22' W 079°57'0 0.0
2018-Feb-24 16:28N 09°22' W 079°57'0 0.0
2018-Feb-24 15:55N 09°22' W 079°57'0 0.0
2018-Feb-24 15:28N 09°22' W 079°57'0 0.0
2018-Feb-24 14:58N 09°22' W 079°57'0 0.0
2018-Feb-24 14:25N 09°22' W 079°57'0 0.0
2018-Feb-24 13:58N 09°22' W 079°57'0 0.1
2018-Feb-24 13:28N 09°22' W 079°57'0 0.1
2018-Feb-24 12:58N 09°22' W 079°57'0 0.0
2018-Feb-24 12:28N 09°22' W 079°57'0 0.0
2018-Feb-24 11:55N 09°22' W 079°57'0 0.0
2018-Feb-24 11:28N 09°22' W 079°57'0 0.0
2018-Feb-24 10:58N 09°22' W 079°57'0 0.0
2018-Feb-24 10:28N 09°22' W 079°57'0 0.0
2018-Feb-24 09:58N 09°22' W 079°57'0 0.0
2018-Feb-24 09:28N 09°22' W 079°57'0 0.0
2018-Feb-24 08:58N 09°22' W 079°57'0 0.0
2018-Feb-24 08:28N 09°22' W 079°57'0 0.0
2018-Feb-24 07:58N 09°22' W 079°57'0 0.0
2018-Feb-24 07:28N 09°22' W 079°57'0 0.0
2018-Feb-24 06:58N 09°22' W 079°57'0 0.0
2018-Feb-24 06:28N 09°22' W 079°57'0 0.0
2018-Feb-24 05:58N 09°22' W 079°57'0 0.0
2018-Feb-24 05:28N 09°22' W 079°57'0 0.0
2018-Feb-24 04:58N 09°22' W 079°57'0 0.0
2018-Feb-24 04:28N 09°22' W 079°57'0 0.0
2018-Feb-24 03:58N 09°22' W 079°57'0 0.0
2018-Feb-24 03:28N 09°22' W 079°57'0 0.0
2018-Feb-24 02:58N 09°22' W 079°57'0 0.0
2018-Feb-24 02:28N 09°22' W 079°57'0 0.0
2018-Feb-24 01:58N 09°22' W 079°57'0 0.0
2018-Feb-24 01:28N 09°22' W 079°57'0 0.0
2018-Feb-24 00:58N 09°22' W 079°57'0 0.0
2018-Feb-24 00:25N 09°22' W 079°57'0 0.0
2018-Feb-23 23:58N 09°22' W 079°57'0 0.0
2018-Feb-23 23:28N 09°22' W 079°57'0 0.0
2018-Feb-23 22:58N 09°22' W 079°57'0 0.0
2018-Feb-23 22:28N 09°22' W 079°57'0 0.0
2018-Feb-23 21:58N 09°22' W 079°57'0 0.0
2018-Feb-23 21:28N 09°22' W 079°57'0 0.0
2018-Feb-23 20:58N 09°22' W 079°57'0 0.0
2018-Feb-23 20:28N 09°22' W 079°57'0 0.0
2018-Feb-23 19:58N 09°22' W 079°57'0 0.0
2018-Feb-23 19:28N 09°22' W 079°57'0 0.0
2018-Feb-23 18:58N 09°22' W 079°57'0 0.0
2018-Feb-23 18:28N 09°22' W 079°57'0 0.0
2018-Feb-23 17:58N 09°22' W 079°57'0 0.0
2018-Feb-23 17:28N 09°22' W 079°57'0 0.0
2018-Feb-23 16:58N 09°22' W 079°57'0 0.0
2018-Feb-23 16:28N 09°22' W 079°57'0 0.0
2018-Feb-23 15:58N 09°22' W 079°57'0 0.0
2018-Feb-23 15:28N 09°22' W 079°57'0 0.0
2018-Feb-23 14:58N 09°22' W 079°57'0 0.0
2018-Feb-23 14:28N 09°22' W 079°57'0 0.0
2018-Feb-23 13:58N 09°22' W 079°57'0 0.0
2018-Feb-23 13:28N 09°22' W 079°57'0 0.0
2018-Feb-23 12:58N 09°22' W 079°57'0 0.0
2018-Feb-23 12:28N 09°22' W 079°57'0 0.0
2018-Feb-23 11:58N 09°22' W 079°57'0 0.0
2018-Feb-23 11:28N 09°22' W 079°57'0 0.0
2018-Feb-23 10:58N 09°22' W 079°57'0 0.0
2018-Feb-23 10:28N 09°22' W 079°57'0 0.0
2018-Feb-23 09:58N 09°22' W 079°57'0 0.0
2018-Feb-23 09:28N 09°22' W 079°57'0 0.0
2018-Feb-23 08:58N 09°22' W 079°57'0 0.0
2018-Feb-23 08:28N 09°22' W 079°57'0 0.0
2018-Feb-23 07:58N 09°22' W 079°57'0 0.0
2018-Feb-23 07:25N 09°22' W 079°57'0 0.0
2018-Feb-23 06:58N 09°22' W 079°57'0 0.0
2018-Feb-23 06:28N 09°22' W 079°57'0 0.0
2018-Feb-23 05:58N 09°22' W 079°57'0 0.0
2018-Feb-23 05:28N 09°22' W 079°57'0 0.0
2018-Feb-23 04:58N 09°22' W 079°57'0 0.0
2018-Feb-23 04:28N 09°22' W 079°57'0 0.0
2018-Feb-23 03:58N 09°22' W 079°57'0 0.0
2018-Feb-23 03:28N 09°22' W 079°57'0 0.0
2018-Feb-23 02:58N 09°22' W 079°57'0 0.0
2018-Feb-23 02:28N 09°22' W 079°57'0 0.0
2018-Feb-23 01:58N 09°22' W 079°57'0 0.0
2018-Feb-23 01:28N 09°22' W 079°57'0 0.0
2018-Feb-23 00:58N 09°22' W 079°57'0 0.0
2018-Feb-23 00:28N 09°22' W 079°57'0 0.0
2018-Feb-22 23:58N 09°22' W 079°57'0 0.0
2018-Feb-22 23:28N 09°22' W 079°57'0 0.0
2018-Feb-22 22:58N 09°22' W 079°57'0 0.0
2018-Feb-22 22:28N 09°22' W 079°57'0 0.0
2018-Feb-22 21:58N 09°22' W 079°57'0 0.0
2018-Feb-22 21:28N 09°22' W 079°57'0 0.0
2018-Feb-22 20:58N 09°22' W 079°57'0 0.0
2018-Feb-22 20:28N 09°22' W 079°57'0 0.0
2018-Feb-22 19:58N 09°22' W 079°57'0 0.0
2018-Feb-22 19:28N 09°22' W 079°57'0 0.0
2018-Feb-22 18:58N 09°22' W 079°57'0 0.0
2018-Feb-22 18:28N 09°22' W 079°57'0 0.0
2018-Feb-22 17:58N 09°22' W 079°57'0 0.0
2018-Feb-22 17:28N 09°22' W 079°57'0 0.0
2018-Feb-22 16:58N 09°22' W 079°57'0 0.0
2018-Feb-22 16:28N 09°22' W 079°57'0 0.0
2018-Feb-22 15:58N 09°22' W 079°57'0 0.0
2018-Feb-22 15:28N 09°22' W 079°57'0 0.0
2018-Feb-22 14:58N 09°22' W 079°57'0 0.0
2018-Feb-22 14:28N 09°22' W 079°57'0 0.0
2018-Feb-22 13:58N 09°22' W 079°57'0 0.0
2018-Feb-22 13:28N 09°22' W 079°57'0 0.0
2018-Feb-22 12:58N 09°22' W 079°57'0 0.0
2018-Feb-22 12:28N 09°22' W 079°57'0 0.0
2018-Feb-22 11:58N 09°22' W 079°57'0 0.0
2018-Feb-22 11:28N 09°22' W 079°57'0 0.0
2018-Feb-22 10:58N 09°22' W 079°57'0 0.0
2018-Feb-22 10:28N 09°22' W 079°57'0 0.0
2018-Feb-22 09:58N 09°22' W 079°57'0 0.0
2018-Feb-22 09:28N 09°22' W 079°57'0 0.0
2018-Feb-22 08:58N 09°22' W 079°57'0 0.0
2018-Feb-22 08:28N 09°22' W 079°57'0 0.0
2018-Feb-22 07:58N 09°22' W 079°57'0 0.0
2018-Feb-22 07:28N 09°22' W 079°57'0 0.0
2018-Feb-22 06:58N 09°22' W 079°57'0 0.0
2018-Feb-22 06:28N 09°22' W 079°57'0 0.0
2018-Feb-22 05:58N 09°22' W 079°57'0 0.0
2018-Feb-22 05:28N 09°22' W 079°57'0 0.0
2018-Feb-22 04:58N 09°22' W 079°57'0 0.0
2018-Feb-22 04:28N 09°22' W 079°57'0 0.0
2018-Feb-22 03:58N 09°22' W 079°57'0 0.0
2018-Feb-22 03:28N 09°22' W 079°57'0 0.0
2018-Feb-22 02:58N 09°22' W 079°57'0 0.0
2018-Feb-22 02:28N 09°22' W 079°57'0 0.0
2018-Feb-22 01:58N 09°22' W 079°57'0 0.0
2018-Feb-22 01:28N 09°22' W 079°57'0 0.0
2018-Feb-22 00:58N 09°22' W 079°57'0 0.0
2018-Feb-22 00:28N 09°22' W 079°57'0 0.0
2018-Feb-21 23:58N 09°22' W 079°57'  

Dump ship's entire track history